sensor_id;sensor_type;location;lat;lon;timestamp;P1;durP1;ratioP1;P2;durP2;ratioP2
69636;SDS011;56860;51.144;16.954;2024-02-26T00:00:14;15.6;;;25.0;;
69636;SDS011;56860;51.144;16.954;2024-02-26T00:01:14;15.6;;;25.0;;
69636;SDS011;56860;51.144;16.954;2024-02-26T00:02:14;15.6;;;25.9;;
69636;SDS011;56860;51.144;16.954;2024-02-26T00:03:14;15.2;;;24.9;;
69636;SDS011;56860;51.144;16.954;2024-02-26T00:04:14;15.2;;;24.9;;
69636;SDS011;56860;51.144;16.954;2024-02-26T00:05:14;15.2;;;24.9;;
69636;SDS011;56860;51.144;16.954;2024-02-26T00:06:14;16.0;;;29.9;;
69636;SDS011;56860;51.144;16.954;2024-02-26T00:07:14;16.0;;;29.9;;
69636;SDS011;56860;51.144;16.954;2024-02-26T00:08:14;16.0;;;29.9;;
69636;SDS011;56860;51.144;16.954;2024-02-26T00:09:14;14.9;;;25.9;;
69636;SDS011;56860;51.144;16.954;2024-02-26T00:10:14;14.9;;;25.9;;
69636;SDS011;56860;51.144;16.954;2024-02-26T00:11:14;14.9;;;25.9;;
69636;SDS011;56860;51.144;16.954;2024-02-26T00:12:14;15.8;;;31.4;;
69636;SDS011;56860;51.144;16.954;2024-02-26T00:13:14;15.8;;;31.4;;
69636;SDS011;56860;51.144;16.954;2024-02-26T00:14:14;15.8;;;31.4;;
69636;SDS011;56860;51.144;16.954;2024-02-26T00:15:14;16.6;;;27.8;;
69636;SDS011;56860;51.144;16.954;2024-02-26T00:16:14;16.6;;;27.8;;
69636;SDS011;56860;51.144;16.954;2024-02-26T00:17:14;16.6;;;27.8;;
69636;SDS011;56860;51.144;16.954;2024-02-26T00:18:14;18.0;;;31.8;;
69636;SDS011;56860;51.144;16.954;2024-02-26T00:19:14;18.0;;;31.8;;
69636;SDS011;56860;51.144;16.954;2024-02-26T00:20:14;18.0;;;31.8;;
69636;SDS011;56860;51.144;16.954;2024-02-26T00:21:14;20.5;;;35.0;;
69636;SDS011;56860;51.144;16.954;2024-02-26T00:22:14;20.5;;;35.0;;
69636;SDS011;56860;51.144;16.954;2024-02-26T00:23:14;20.5;;;35.0;;
69636;SDS011;56860;51.144;16.954;2024-02-26T00:24:14;18.4;;;33.5;;
69636;SDS011;56860;51.144;16.954;2024-02-26T00:25:14;18.4;;;33.5;;
69636;SDS011;56860;51.144;16.954;2024-02-26T00:26:14;18.4;;;33.5;;
69636;SDS011;56860;51.144;16.954;2024-02-26T00:27:14;21.5;;;35.2;;
69636;SDS011;56860;51.144;16.954;2024-02-26T00:28:14;21.5;;;35.2;;
69636;SDS011;56860;51.144;16.954;2024-02-26T00:29:14;21.5;;;35.2;;
69636;SDS011;56860;51.144;16.954;2024-02-26T00:30:14;20.0;;;30.6;;
69636;SDS011;56860;51.144;16.954;2024-02-26T00:31:14;20.0;;;30.6;;
69636;SDS011;56860;51.144;16.954;2024-02-26T00:32:14;20.0;;;30.6;;
69636;SDS011;56860;51.144;16.954;2024-02-26T00:33:16;22.2;;;36.7;;
69636;SDS011;56860;51.144;16.954;2024-02-26T00:34:14;22.2;;;36.7;;
69636;SDS011;56860;51.144;16.954;2024-02-26T00:35:14;22.2;;;36.7;;
69636;SDS011;56860;51.144;16.954;2024-02-26T00:36:14;27.8;;;44.6;;
69636;SDS011;56860;51.144;16.954;2024-02-26T00:37:14;27.8;;;44.6;;
69636;SDS011;56860;51.144;16.954;2024-02-26T00:38:14;27.8;;;44.6;;
69636;SDS011;56860;51.144;16.954;2024-02-26T00:39:14;33.3;;;46.6;;
69636;SDS011;56860;51.144;16.954;2024-02-26T00:40:14;33.3;;;46.6;;
69636;SDS011;56860;51.144;16.954;2024-02-26T00:41:14;33.3;;;46.6;;
69636;SDS011;56860;51.144;16.954;2024-02-26T00:42:14;28.6;;;43.9;;
69636;SDS011;56860;51.144;16.954;2024-02-26T00:43:14;28.6;;;43.9;;
69636;SDS011;56860;51.144;16.954;2024-02-26T00:44:14;28.6;;;43.9;;
69636;SDS011;56860;51.144;16.954;2024-02-26T00:45:14;25.4;;;40.7;;
69636;SDS011;56860;51.144;16.954;2024-02-26T00:46:14;25.4;;;40.7;;
69636;SDS011;56860;51.144;16.954;2024-02-26T00:47:14;25.4;;;40.7;;
69636;SDS011;56860;51.144;16.954;2024-02-26T00:48:14;24.4;;;39.5;;
69636;SDS011;56860;51.144;16.954;2024-02-26T00:49:14;24.4;;;39.5;;
69636;SDS011;56860;51.144;16.954;2024-02-26T00:50:14;24.4;;;39.5;;
69636;SDS011;56860;51.144;16.954;2024-02-26T00:51:14;28.8;;;48.3;;
69636;SDS011;56860;51.144;16.954;2024-02-26T00:52:14;28.1;;;46.7;;
69636;SDS011;56860;51.144;16.954;2024-02-26T00:53:14;28.1;;;46.7;;
69636;SDS011;56860;51.144;16.954;2024-02-26T00:54:14;38.4;;;56.6;;
69636;SDS011;56860;51.144;16.954;2024-02-26T00:55:14;38.1;;;57.0;;
69636;SDS011;56860;51.144;16.954;2024-02-26T00:56:14;38.1;;;57.0;;
69636;SDS011;56860;51.144;16.954;2024-02-26T00:57:14;38.1;;;57.0;;
69636;SDS011;56860;51.144;16.954;2024-02-26T00:58:14;26.1;;;43.2;;
69636;SDS011;56860;51.144;16.954;2024-02-26T00:59:14;26.1;;;43.2;;
69636;SDS011;56860;51.144;16.954;2024-02-26T01:00:14;26.1;;;43.2;;
69636;SDS011;56860;51.144;16.954;2024-02-26T01:01:14;23.3;;;39.0;;
69636;SDS011;56860;51.144;16.954;2024-02-26T01:02:14;23.3;;;39.0;;
69636;SDS011;56860;51.144;16.954;2024-02-26T01:03:14;23.3;;;39.0;;
69636;SDS011;56860;51.144;16.954;2024-02-26T01:04:14;21.1;;;36.3;;
69636;SDS011;56860;51.144;16.954;2024-02-26T01:05:14;21.1;;;36.3;;
69636;SDS011;56860;51.144;16.954;2024-02-26T01:06:14;21.1;;;36.3;;
69636;SDS011;56860;51.144;16.954;2024-02-26T01:07:14;20.3;;;33.9;;
69636;SDS011;56860;51.144;16.954;2024-02-26T01:08:14;20.3;;;33.9;;
69636;SDS011;56860;51.144;16.954;2024-02-26T01:09:14;20.3;;;33.9;;
69636;SDS011;56860;51.144;16.954;2024-02-26T01:10:14;23.3;;;37.6;;
69636;SDS011;56860;51.144;16.954;2024-02-26T01:11:14;23.3;;;37.6;;
69636;SDS011;56860;51.144;16.954;2024-02-26T01:12:14;23.3;;;37.6;;
69636;SDS011;56860;51.144;16.954;2024-02-26T01:13:14;24.9;;;41.7;;
69636;SDS011;56860;51.144;16.954;2024-02-26T01:14:14;24.9;;;41.7;;
69636;SDS011;56860;51.144;16.954;2024-02-26T01:15:14;24.9;;;41.7;;
69636;SDS011;56860;51.144;16.954;2024-02-26T01:16:14;21.2;;;35.1;;
69636;SDS011;56860;51.144;16.954;2024-02-26T01:17:14;21.1;;;35.7;;
69636;SDS011;56860;51.144;16.954;2024-02-26T01:18:14;21.1;;;35.7;;
69636;SDS011;56860;51.144;16.954;2024-02-26T01:19:14;21.1;;;35.7;;
69636;SDS011;56860;51.144;16.954;2024-02-26T01:20:14;30.7;;;48.6;;
69636;SDS011;56860;51.144;16.954;2024-02-26T01:21:14;30.7;;;48.6;;
69636;SDS011;56860;51.144;16.954;2024-02-26T01:22:14;30.7;;;48.6;;
69636;SDS011;56860;51.144;16.954;2024-02-26T01:23:14;34.3;;;53.9;;
69636;SDS011;56860;51.144;16.954;2024-02-26T01:24:14;34.3;;;53.9;;
69636;SDS011;56860;51.144;16.954;2024-02-26T01:25:14;34.3;;;53.9;;
69636;SDS011;56860;51.144;16.954;2024-02-26T01:26:14;28.7;;;50.8;;
69636;SDS011;56860;51.144;16.954;2024-02-26T01:27:14;28.7;;;50.8;;
69636;SDS011;56860;51.144;16.954;2024-02-26T01:28:14;28.7;;;50.8;;
69636;SDS011;56860;51.144;16.954;2024-02-26T01:29:14;28.2;;;47.1;;
69636;SDS011;56860;51.144;16.954;2024-02-26T01:30:14;28.2;;;47.1;;
69636;SDS011;56860;51.144;16.954;2024-02-26T01:31:14;28.2;;;47.1;;
69636;SDS011;56860;51.144;16.954;2024-02-26T01:32:14;29.3;;;51.3;;
69636;SDS011;56860;51.144;16.954;2024-02-26T01:33:14;29.3;;;51.3;;
69636;SDS011;56860;51.144;16.954;2024-02-26T01:34:14;29.3;;;51.3;;
69636;SDS011;56860;51.144;16.954;2024-02-26T01:35:14;28.1;;;50.2;;
69636;SDS011;56860;51.144;16.954;2024-02-26T01:36:14;28.1;;;50.2;;
69636;SDS011;56860;51.144;16.954;2024-02-26T01:37:14;28.1;;;50.2;;
69636;SDS011;56860;51.144;16.954;2024-02-26T01:38:14;27.0;;;51.5;;
69636;SDS011;56860;51.144;16.954;2024-02-26T01:39:14;26.1;;;49.5;;
69636;SDS011;56860;51.144;16.954;2024-02-26T01:40:14;26.1;;;49.5;;
69636;SDS011;56860;51.144;16.954;2024-02-26T01:41:14;24.0;;;45.4;;
69636;SDS011;56860;51.144;16.954;2024-02-26T01:42:14;23.1;;;41.1;;
69636;SDS011;56860;51.144;16.954;2024-02-26T01:43:14;23.1;;;41.1;;
69636;SDS011;56860;51.144;16.954;2024-02-26T01:44:14;23.1;;;41.1;;
69636;SDS011;56860;51.144;16.954;2024-02-26T01:45:15;23.2;;;41.2;;
69636;SDS011;56860;51.144;16.954;2024-02-26T01:46:14;23.2;;;41.2;;
69636;SDS011;56860;51.144;16.954;2024-02-26T01:47:14;23.2;;;41.2;;
69636;SDS011;56860;51.144;16.954;2024-02-26T01:48:14;21.5;;;38.0;;
69636;SDS011;56860;51.144;16.954;2024-02-26T01:49:14;21.5;;;38.0;;
69636;SDS011;56860;51.144;16.954;2024-02-26T01:50:14;21.5;;;38.0;;
69636;SDS011;56860;51.144;16.954;2024-02-26T01:51:14;23.0;;;40.2;;
69636;SDS011;56860;51.144;16.954;2024-02-26T01:52:14;23.0;;;40.2;;
69636;SDS011;56860;51.144;16.954;2024-02-26T01:53:15;23.0;;;40.2;;
69636;SDS011;56860;51.144;16.954;2024-02-26T01:54:15;29.3;;;60.3;;
69636;SDS011;56860;51.144;16.954;2024-02-26T01:55:14;29.3;;;60.3;;
69636;SDS011;56860;51.144;16.954;2024-02-26T01:56:14;29.3;;;60.3;;
69636;SDS011;56860;51.144;16.954;2024-02-26T01:57:15;30.9;;;64.3;;
69636;SDS011;56860;51.144;16.954;2024-02-26T01:58:14;30.9;;;64.3;;
69636;SDS011;56860;51.144;16.954;2024-02-26T01:59:14;30.9;;;64.3;;
69636;SDS011;56860;51.144;16.954;2024-02-26T02:00:14;31.3;;;61.9;;
69636;SDS011;56860;51.144;16.954;2024-02-26T02:01:14;30.4;;;59.2;;
69636;SDS011;56860;51.144;16.954;2024-02-26T02:02:14;30.4;;;59.2;;
69636;SDS011;56860;51.144;16.954;2024-02-26T02:03:14;29.4;;;60.9;;
69636;SDS011;56860;51.144;16.954;2024-02-26T02:04:14;28.8;;;59.9;;
69636;SDS011;56860;51.144;16.954;2024-02-26T02:05:14;28.8;;;59.9;;
69636;SDS011;56860;51.144;16.954;2024-02-26T02:06:14;28.8;;;59.9;;
69636;SDS011;56860;51.144;16.954;2024-02-26T02:07:14;25.3;;;48.8;;
69636;SDS011;56860;51.144;16.954;2024-02-26T02:10:19;26.2;;;52.9;;
69636;SDS011;56860;51.144;16.954;2024-02-26T02:11:14;26.2;;;52.9;;
69636;SDS011;56860;51.144;16.954;2024-02-26T02:12:14;26.2;;;52.9;;
69636;SDS011;56860;51.144;16.954;2024-02-26T02:13:14;24.1;;;43.7;;
69636;SDS011;56860;51.144;16.954;2024-02-26T02:14:14;23.7;;;42.5;;
69636;SDS011;56860;51.144;16.954;2024-02-26T02:15:14;23.7;;;42.5;;
69636;SDS011;56860;51.144;16.954;2024-02-26T02:16:15;22.9;;;41.5;;
69636;SDS011;56860;51.144;16.954;2024-02-26T02:17:14;22.6;;;40.4;;
69636;SDS011;56860;51.144;16.954;2024-02-26T02:18:14;22.6;;;40.4;;
69636;SDS011;56860;51.144;16.954;2024-02-26T02:19:14;22.6;;;40.4;;
69636;SDS011;56860;51.144;16.954;2024-02-26T02:20:15;22.5;;;40.2;;
69636;SDS011;56860;51.144;16.954;2024-02-26T02:21:14;22.5;;;40.2;;
69636;SDS011;56860;51.144;16.954;2024-02-26T02:22:14;22.5;;;40.2;;
69636;SDS011;56860;51.144;16.954;2024-02-26T02:23:14;23.5;;;43.2;;
69636;SDS011;56860;51.144;16.954;2024-02-26T02:24:14;23.5;;;43.2;;
69636;SDS011;56860;51.144;16.954;2024-02-26T02:25:14;23.5;;;43.2;;
69636;SDS011;56860;51.144;16.954;2024-02-26T02:26:15;23.0;;;42.7;;
69636;SDS011;56860;51.144;16.954;2024-02-26T02:27:14;23.0;;;42.7;;
69636;SDS011;56860;51.144;16.954;2024-02-26T02:28:14;23.0;;;42.7;;
69636;SDS011;56860;51.144;16.954;2024-02-26T02:29:14;22.8;;;42.5;;
69636;SDS011;56860;51.144;16.954;2024-02-26T02:30:14;22.8;;;42.5;;
69636;SDS011;56860;51.144;16.954;2024-02-26T02:31:14;22.8;;;42.5;;
69636;SDS011;56860;51.144;16.954;2024-02-26T02:32:14;23.3;;;43.0;;
69636;SDS011;56860;51.144;16.954;2024-02-26T02:33:14;23.1;;;40.7;;
69636;SDS011;56860;51.144;16.954;2024-02-26T02:36:14;unavailable;;;unavailable;;
69636;SDS011;56860;51.144;16.954;2024-02-26T02:36:19;unavailable;;;unavailable;;
69636;SDS011;56860;51.144;16.954;2024-02-26T02:37:16;22.2;;;37.3;;
69636;SDS011;56860;51.144;16.954;2024-02-26T02:38:14;22.2;;;37.3;;
69636;SDS011;56860;51.144;16.954;2024-02-26T02:39:15;22.8;;;38.3;;
69636;SDS011;56860;51.144;16.954;2024-02-26T02:40:14;22.8;;;38.3;;
69636;SDS011;56860;51.144;16.954;2024-02-26T02:41:14;22.8;;;38.3;;
69636;SDS011;56860;51.144;16.954;2024-02-26T02:42:14;20.9;;;39.8;;
69636;SDS011;56860;51.144;16.954;2024-02-26T02:43:14;20.9;;;39.8;;
69636;SDS011;56860;51.144;16.954;2024-02-26T02:44:14;20.9;;;39.8;;
69636;SDS011;56860;51.144;16.954;2024-02-26T02:45:14;22.6;;;43.7;;
69636;SDS011;56860;51.144;16.954;2024-02-26T02:46:14;22.7;;;44.9;;
69636;SDS011;56860;51.144;16.954;2024-02-26T02:47:14;22.7;;;44.9;;
69636;SDS011;56860;51.144;16.954;2024-02-26T02:48:14;22.0;;;39.3;;
69636;SDS011;56860;51.144;16.954;2024-02-26T02:49:14;21.6;;;38.6;;
69636;SDS011;56860;51.144;16.954;2024-02-26T02:50:14;21.6;;;38.6;;
69636;SDS011;56860;51.144;16.954;2024-02-26T02:51:14;17.3;;;26.6;;
69636;SDS011;56860;51.144;16.954;2024-02-26T02:52:14;21.3;;;41.2;;
69636;SDS011;56860;51.144;16.954;2024-02-26T02:53:14;21.3;;;41.2;;
69636;SDS011;56860;51.144;16.954;2024-02-26T02:54:14;21.3;;;41.2;;
69636;SDS011;56860;51.144;16.954;2024-02-26T02:55:15;21.8;;;37.1;;
69636;SDS011;56860;51.144;16.954;2024-02-26T02:56:14;21.8;;;37.1;;
69636;SDS011;56860;51.144;16.954;2024-02-26T02:57:14;21.8;;;37.1;;
69636;SDS011;56860;51.144;16.954;2024-02-26T02:58:14;22.3;;;37.8;;
69636;SDS011;56860;51.144;16.954;2024-02-26T02:59:14;22.3;;;37.8;;
69636;SDS011;56860;51.144;16.954;2024-02-26T03:00:14;22.3;;;37.8;;
69636;SDS011;56860;51.144;16.954;2024-02-26T03:01:14;22.0;;;40.1;;
69636;SDS011;56860;51.144;16.954;2024-02-26T03:02:14;22.0;;;40.1;;
69636;SDS011;56860;51.144;16.954;2024-02-26T03:03:14;22.0;;;40.1;;
69636;SDS011;56860;51.144;16.954;2024-02-26T03:04:14;21.9;;;39.8;;
69636;SDS011;56860;51.144;16.954;2024-02-26T03:05:14;21.9;;;39.8;;
69636;SDS011;56860;51.144;16.954;2024-02-26T03:06:14;21.9;;;39.8;;
69636;SDS011;56860;51.144;16.954;2024-02-26T03:07:14;21.6;;;37.5;;
69636;SDS011;56860;51.144;16.954;2024-02-26T03:08:14;21.6;;;37.5;;
69636;SDS011;56860;51.144;16.954;2024-02-26T03:09:14;21.6;;;37.5;;
69636;SDS011;56860;51.144;16.954;2024-02-26T03:10:14;21.7;;;36.9;;
69636;SDS011;56860;51.144;16.954;2024-02-26T03:11:14;20.8;;;36.1;;
69636;SDS011;56860;51.144;16.954;2024-02-26T03:12:14;20.8;;;36.1;;
69636;SDS011;56860;51.144;16.954;2024-02-26T03:13:14;20.8;;;36.1;;
69636;SDS011;56860;51.144;16.954;2024-02-26T03:14:14;21.7;;;38.5;;
69636;SDS011;56860;51.144;16.954;2024-02-26T03:15:14;21.7;;;38.5;;
69636;SDS011;56860;51.144;16.954;2024-02-26T03:16:14;21.7;;;38.5;;
69636;SDS011;56860;51.144;16.954;2024-02-26T03:17:14;22.5;;;37.9;;
69636;SDS011;56860;51.144;16.954;2024-02-26T03:18:14;22.5;;;37.9;;
69636;SDS011;56860;51.144;16.954;2024-02-26T03:19:14;22.5;;;37.9;;
69636;SDS011;56860;51.144;16.954;2024-02-26T03:20:14;22.1;;;41.4;;
69636;SDS011;56860;51.144;16.954;2024-02-26T03:21:14;22.1;;;41.4;;
69636;SDS011;56860;51.144;16.954;2024-02-26T03:22:14;22.1;;;41.4;;
69636;SDS011;56860;51.144;16.954;2024-02-26T03:23:14;21.2;;;40.1;;
69636;SDS011;56860;51.144;16.954;2024-02-26T03:24:14;21.2;;;40.1;;
69636;SDS011;56860;51.144;16.954;2024-02-26T03:25:14;21.2;;;40.1;;
69636;SDS011;56860;51.144;16.954;2024-02-26T03:26:14;22.1;;;43.1;;
69636;SDS011;56860;51.144;16.954;2024-02-26T03:27:14;22.1;;;43.1;;
69636;SDS011;56860;51.144;16.954;2024-02-26T03:28:14;22.1;;;43.1;;
69636;SDS011;56860;51.144;16.954;2024-02-26T03:29:14;20.7;;;34.3;;
69636;SDS011;56860;51.144;16.954;2024-02-26T03:30:14;20.7;;;34.3;;
69636;SDS011;56860;51.144;16.954;2024-02-26T03:31:14;20.7;;;34.3;;
69636;SDS011;56860;51.144;16.954;2024-02-26T03:32:14;21.5;;;35.5;;
69636;SDS011;56860;51.144;16.954;2024-02-26T03:33:14;21.5;;;35.5;;
69636;SDS011;56860;51.144;16.954;2024-02-26T03:34:14;21.5;;;35.5;;
69636;SDS011;56860;51.144;16.954;2024-02-26T03:35:14;20.6;;;35.8;;
69636;SDS011;56860;51.144;16.954;2024-02-26T03:36:14;20.6;;;35.8;;
69636;SDS011;56860;51.144;16.954;2024-02-26T03:37:14;20.6;;;35.8;;
69636;SDS011;56860;51.144;16.954;2024-02-26T03:38:14;20.4;;;35.4;;
69636;SDS011;56860;51.144;16.954;2024-02-26T03:39:14;20.4;;;35.4;;
69636;SDS011;56860;51.144;16.954;2024-02-26T03:40:14;20.4;;;35.4;;
69636;SDS011;56860;51.144;16.954;2024-02-26T03:41:14;20.8;;;32.2;;
69636;SDS011;56860;51.144;16.954;2024-02-26T03:42:14;20.8;;;32.2;;
69636;SDS011;56860;51.144;16.954;2024-02-26T03:43:14;20.8;;;32.2;;
69636;SDS011;56860;51.144;16.954;2024-02-26T03:44:14;20.5;;;30.0;;
69636;SDS011;56860;51.144;16.954;2024-02-26T03:45:14;20.5;;;30.0;;
69636;SDS011;56860;51.144;16.954;2024-02-26T03:46:14;20.5;;;30.0;;
69636;SDS011;56860;51.144;16.954;2024-02-26T03:47:15;21.7;;;34.3;;
69636;SDS011;56860;51.144;16.954;2024-02-26T03:48:14;21.3;;;33.9;;
69636;SDS011;56860;51.144;16.954;2024-02-26T03:49:14;21.3;;;33.9;;
69636;SDS011;56860;51.144;16.954;2024-02-26T03:50:14;21.3;;;33.9;;
69636;SDS011;56860;51.144;16.954;2024-02-26T03:51:14;19.9;;;32.6;;
69636;SDS011;56860;51.144;16.954;2024-02-26T03:52:14;19.9;;;32.6;;
69636;SDS011;56860;51.144;16.954;2024-02-26T03:53:14;19.9;;;32.6;;
69636;SDS011;56860;51.144;16.954;2024-02-26T03:54:14;18.9;;;32.5;;
69636;SDS011;56860;51.144;16.954;2024-02-26T03:55:14;18.9;;;32.5;;
69636;SDS011;56860;51.144;16.954;2024-02-26T03:56:14;18.9;;;32.5;;
69636;SDS011;56860;51.144;16.954;2024-02-26T03:57:14;19.3;;;31.5;;
69636;SDS011;56860;51.144;16.954;2024-02-26T03:58:14;19.3;;;31.5;;
69636;SDS011;56860;51.144;16.954;2024-02-26T03:59:14;19.3;;;31.5;;
69636;SDS011;56860;51.144;16.954;2024-02-26T04:00:14;19.7;;;33.0;;
69636;SDS011;56860;51.144;16.954;2024-02-26T04:01:14;19.7;;;33.0;;
69636;SDS011;56860;51.144;16.954;2024-02-26T04:02:14;19.7;;;33.0;;
69636;SDS011;56860;51.144;16.954;2024-02-26T04:03:14;20.3;;;34.9;;
69636;SDS011;56860;51.144;16.954;2024-02-26T04:04:14;20.3;;;34.9;;
69636;SDS011;56860;51.144;16.954;2024-02-26T04:05:15;20.3;;;34.9;;
69636;SDS011;56860;51.144;16.954;2024-02-26T04:06:14;19.6;;;32.9;;
69636;SDS011;56860;51.144;16.954;2024-02-26T04:07:14;19.6;;;32.9;;
69636;SDS011;56860;51.144;16.954;2024-02-26T04:08:14;19.6;;;32.9;;
69636;SDS011;56860;51.144;16.954;2024-02-26T04:09:14;20.1;;;33.1;;
69636;SDS011;56860;51.144;16.954;2024-02-26T04:10:14;20.1;;;33.1;;
69636;SDS011;56860;51.144;16.954;2024-02-26T04:11:14;20.1;;;33.1;;
69636;SDS011;56860;51.144;16.954;2024-02-26T04:12:14;18.9;;;33.4;;
69636;SDS011;56860;51.144;16.954;2024-02-26T04:13:14;18.9;;;33.4;;
69636;SDS011;56860;51.144;16.954;2024-02-26T04:14:14;18.9;;;33.4;;
69636;SDS011;56860;51.144;16.954;2024-02-26T04:15:14;19.6;;;31.7;;
69636;SDS011;56860;51.144;16.954;2024-02-26T04:16:14;19.6;;;31.7;;
69636;SDS011;56860;51.144;16.954;2024-02-26T04:17:14;19.6;;;31.7;;
69636;SDS011;56860;51.144;16.954;2024-02-26T04:18:14;20.2;;;35.9;;
69636;SDS011;56860;51.144;16.954;2024-02-26T04:19:14;19.7;;;33.8;;
69636;SDS011;56860;51.144;16.954;2024-02-26T04:20:15;19.7;;;33.8;;
69636;SDS011;56860;51.144;16.954;2024-02-26T04:21:14;19.2;;;30.7;;
69636;SDS011;56860;51.144;16.954;2024-02-26T04:22:14;19.2;;;29.7;;
69636;SDS011;56860;51.144;16.954;2024-02-26T04:23:14;19.2;;;29.7;;
69636;SDS011;56860;51.144;16.954;2024-02-26T04:24:14;19.2;;;29.7;;
69636;SDS011;56860;51.144;16.954;2024-02-26T04:25:14;18.5;;;32.0;;
69636;SDS011;56860;51.144;16.954;2024-02-26T04:26:14;18.5;;;32.0;;
69636;SDS011;56860;51.144;16.954;2024-02-26T04:27:14;18.5;;;32.0;;
69636;SDS011;56860;51.144;16.954;2024-02-26T04:28:14;19.4;;;35.1;;
69636;SDS011;56860;51.144;16.954;2024-02-26T04:29:14;19.4;;;35.1;;
69636;SDS011;56860;51.144;16.954;2024-02-26T04:30:14;19.4;;;35.1;;
69636;SDS011;56860;51.144;16.954;2024-02-26T04:31:14;18.4;;;28.7;;
69636;SDS011;56860;51.144;16.954;2024-02-26T04:32:15;18.4;;;28.7;;
69636;SDS011;56860;51.144;16.954;2024-02-26T04:33:14;18.4;;;28.7;;
69636;SDS011;56860;51.144;16.954;2024-02-26T04:34:14;18.4;;;28.5;;
69636;SDS011;56860;51.144;16.954;2024-02-26T04:35:14;18.4;;;28.5;;
69636;SDS011;56860;51.144;16.954;2024-02-26T04:36:15;18.4;;;28.5;;
69636;SDS011;56860;51.144;16.954;2024-02-26T04:37:14;18.3;;;30.4;;
69636;SDS011;56860;51.144;16.954;2024-02-26T04:38:14;18.3;;;30.4;;
69636;SDS011;56860;51.144;16.954;2024-02-26T04:39:14;18.3;;;30.4;;
69636;SDS011;56860;51.144;16.954;2024-02-26T04:40:14;19.1;;;31.8;;
69636;SDS011;56860;51.144;16.954;2024-02-26T04:41:14;19.1;;;31.8;;
69636;SDS011;56860;51.144;16.954;2024-02-26T04:42:14;19.1;;;31.8;;
69636;SDS011;56860;51.144;16.954;2024-02-26T04:43:14;18.6;;;30.0;;
69636;SDS011;56860;51.144;16.954;2024-02-26T04:44:15;18.6;;;30.0;;
69636;SDS011;56860;51.144;16.954;2024-02-26T04:45:14;18.6;;;30.0;;
69636;SDS011;56860;51.144;16.954;2024-02-26T04:46:14;19.5;;;29.9;;
69636;SDS011;56860;51.144;16.954;2024-02-26T04:47:14;19.5;;;29.9;;
69636;SDS011;56860;51.144;16.954;2024-02-26T04:48:14;19.5;;;29.9;;
69636;SDS011;56860;51.144;16.954;2024-02-26T04:49:15;19.7;;;31.2;;
69636;SDS011;56860;51.144;16.954;2024-02-26T04:50:14;19.4;;;30.3;;
69636;SDS011;56860;51.144;16.954;2024-02-26T04:51:14;19.4;;;30.3;;
69636;SDS011;56860;51.144;16.954;2024-02-26T04:52:14;19.7;;;33.6;;
69636;SDS011;56860;51.144;16.954;2024-02-26T04:53:14;19.6;;;32.2;;
69636;SDS011;56860;51.144;16.954;2024-02-26T04:54:14;19.6;;;32.2;;
69636;SDS011;56860;51.144;16.954;2024-02-26T04:55:14;19.6;;;32.2;;
69636;SDS011;56860;51.144;16.954;2024-02-26T04:56:14;19.6;;;33.5;;
69636;SDS011;56860;51.144;16.954;2024-02-26T04:57:14;19.6;;;33.5;;
69636;SDS011;56860;51.144;16.954;2024-02-26T04:58:14;19.6;;;33.5;;
69636;SDS011;56860;51.144;16.954;2024-02-26T04:59:14;18.9;;;32.9;;
69636;SDS011;56860;51.144;16.954;2024-02-26T05:00:15;18.9;;;32.9;;
69636;SDS011;56860;51.144;16.954;2024-02-26T05:01:15;18.9;;;32.9;;
69636;SDS011;56860;51.144;16.954;2024-02-26T05:02:14;20.1;;;32.2;;
69636;SDS011;56860;51.144;16.954;2024-02-26T05:03:14;20.1;;;32.2;;
69636;SDS011;56860;51.144;16.954;2024-02-26T05:04:14;20.1;;;32.2;;
69636;SDS011;56860;51.144;16.954;2024-02-26T05:05:14;19.9;;;36.3;;
69636;SDS011;56860;51.144;16.954;2024-02-26T05:06:14;19.9;;;36.3;;
69636;SDS011;56860;51.144;16.954;2024-02-26T05:07:14;19.9;;;36.3;;
69636;SDS011;56860;51.144;16.954;2024-02-26T05:08:14;18.6;;;34.9;;
69636;SDS011;56860;51.144;16.954;2024-02-26T05:09:14;18.6;;;34.9;;
69636;SDS011;56860;51.144;16.954;2024-02-26T05:10:14;18.6;;;34.9;;
69636;SDS011;56860;51.144;16.954;2024-02-26T05:11:14;18.7;;;33.7;;
69636;SDS011;56860;51.144;16.954;2024-02-26T05:12:14;18.7;;;33.7;;
69636;SDS011;56860;51.144;16.954;2024-02-26T05:13:14;18.7;;;33.7;;
69636;SDS011;56860;51.144;16.954;2024-02-26T05:14:14;18.3;;;29.9;;
69636;SDS011;56860;51.144;16.954;2024-02-26T05:15:14;18.3;;;29.9;;
69636;SDS011;56860;51.144;16.954;2024-02-26T05:16:14;18.3;;;29.9;;
69636;SDS011;56860;51.144;16.954;2024-02-26T05:17:14;18.6;;;33.3;;
69636;SDS011;56860;51.144;16.954;2024-02-26T05:18:14;18.6;;;33.3;;
69636;SDS011;56860;51.144;16.954;2024-02-26T05:19:14;18.6;;;33.3;;
69636;SDS011;56860;51.144;16.954;2024-02-26T05:20:14;17.6;;;29.0;;
69636;SDS011;56860;51.144;16.954;2024-02-26T05:21:14;17.6;;;29.0;;
69636;SDS011;56860;51.144;16.954;2024-02-26T05:22:16;17.6;;;29.0;;
69636;SDS011;56860;51.144;16.954;2024-02-26T05:23:14;19.7;;;30.5;;
69636;SDS011;56860;51.144;16.954;2024-02-26T05:24:14;18.9;;;28.2;;
69636;SDS011;56860;51.144;16.954;2024-02-26T05:25:15;18.9;;;28.2;;
69636;SDS011;56860;51.144;16.954;2024-02-26T05:26:19;18.9;;;28.2;;
69636;SDS011;56860;51.144;16.954;2024-02-26T05:27:15;17.4;;;29.3;;
69636;SDS011;56860;51.144;16.954;2024-02-26T05:28:15;17.4;;;29.3;;
69636;SDS011;56860;51.144;16.954;2024-02-26T05:29:14;17.4;;;29.3;;
69636;SDS011;56860;51.144;16.954;2024-02-26T05:30:14;17.3;;;28.4;;
69636;SDS011;56860;51.144;16.954;2024-02-26T05:31:15;17.3;;;28.4;;
69636;SDS011;56860;51.144;16.954;2024-02-26T05:32:15;17.3;;;28.4;;
69636;SDS011;56860;51.144;16.954;2024-02-26T05:33:15;18.5;;;29.9;;
69636;SDS011;56860;51.144;16.954;2024-02-26T05:34:15;18.5;;;29.9;;
69636;SDS011;56860;51.144;16.954;2024-02-26T05:35:14;18.5;;;29.9;;
69636;SDS011;56860;51.144;16.954;2024-02-26T05:36:18;18.3;;;30.9;;
69636;SDS011;56860;51.144;16.954;2024-02-26T05:37:14;18.3;;;30.9;;
69636;SDS011;56860;51.144;16.954;2024-02-26T05:38:14;18.3;;;30.9;;
69636;SDS011;56860;51.144;16.954;2024-02-26T05:39:15;18.1;;;29.3;;
69636;SDS011;56860;51.144;16.954;2024-02-26T05:40:15;18.1;;;29.3;;
69636;SDS011;56860;51.144;16.954;2024-02-26T05:41:15;18.1;;;29.3;;
69636;SDS011;56860;51.144;16.954;2024-02-26T05:42:14;17.7;;;30.5;;
69636;SDS011;56860;51.144;16.954;2024-02-26T05:43:15;17.7;;;30.5;;
69636;SDS011;56860;51.144;16.954;2024-02-26T05:44:15;17.7;;;30.5;;
69636;SDS011;56860;51.144;16.954;2024-02-26T05:45:15;18.5;;;31.9;;
69636;SDS011;56860;51.144;16.954;2024-02-26T05:46:16;18.5;;;31.9;;
69636;SDS011;56860;51.144;16.954;2024-02-26T05:47:15;18.5;;;31.9;;
69636;SDS011;56860;51.144;16.954;2024-02-26T05:48:15;17.4;;;29.6;;
69636;SDS011;56860;51.144;16.954;2024-02-26T05:49:15;17.4;;;29.6;;
69636;SDS011;56860;51.144;16.954;2024-02-26T05:50:15;17.4;;;29.6;;
69636;SDS011;56860;51.144;16.954;2024-02-26T05:51:15;17.4;;;29.6;;
69636;SDS011;56860;51.144;16.954;2024-02-26T05:52:15;17.7;;;35.1;;
69636;SDS011;56860;51.144;16.954;2024-02-26T05:53:15;17.7;;;35.1;;
69636;SDS011;56860;51.144;16.954;2024-02-26T05:54:15;17.7;;;35.1;;
69636;SDS011;56860;51.144;16.954;2024-02-26T05:55:15;18.0;;;30.0;;
69636;SDS011;56860;51.144;16.954;2024-02-26T05:56:15;18.0;;;30.0;;
69636;SDS011;56860;51.144;16.954;2024-02-26T05:57:15;18.0;;;30.0;;
69636;SDS011;56860;51.144;16.954;2024-02-26T05:58:15;19.5;;;34.8;;